Time;durP1;ratioP1;P1;durP2;ratioP2;P2;SDS_P1;SDS_P2;PMS_P1;PMS_P2;Temp;Humidity;BMP_temperature;BMP_pressure;BME280_temperature;BME280_humidity;BME280_pressure;Samples;Min_cycle;Max_cycle;Signal;HPM_P1;HPM_P2
2022/01/11 00:01:00;;;;;;;24.93;15.70;;;8.50;59.90;;;;;;5106369;28;20549;-55
2022/01/11 00:03:25;;;;;;;23.63;17.10;;;8.50;60.00;;;;;;5109465;28;20490;-54
2022/01/11 00:06:02;;;;;;;23.10;16.37;;;8.40;60.40;;;;;;5110635;28;20436;-51
2022/01/11 00:08:33;;;;;;;24.20;16.80;;;8.50;60.20;;;;;;5111101;28;20685;-52
2022/01/11 00:11:04;;;;;;;31.87;16.13;;;8.50;60.10;;;;;;5107079;28;20464;-51
2022/01/11 00:13:38;;;;;;;23.53;16.67;;;8.20;59.80;;;;;;5104712;28;20437;-54
2022/01/11 00:16:05;;;;;;;27.17;16.07;;;8.10;61.40;;;;;;5102801;28;20429;-53
2022/01/11 00:18:31;;;;;;;32.63;19.57;;;8.20;61.40;;;;;;5105227;28;20916;-51
2022/01/11 00:20:56;;;;;;;27.63;16.77;;;8.20;61.00;;;;;;5097888;28;20440;-51
2022/01/11 00:25:48;;;;;;;27.00;15.70;;;8.40;60.50;;;;;;5099416;28;20259;-51
2022/01/11 00:28:15;;;;;;;24.63;15.87;;;8.30;59.90;;;;;;5099052;28;20270;-52
2022/01/11 00:30:43;;;;;;;24.17;15.63;;;8.30;60.70;;;;;;5110948;28;20441;-51
2022/01/11 00:33:14;;;;;;;19.03;15.33;;;8.30;60.70;;;;;;5095539;28;20444;-51
2022/01/11 00:35:46;;;;;;;20.90;15.40;;;8.30;60.70;;;;;;5105917;28;20533;-51
2022/01/11 00:38:16;;;;;;;24.57;16.17;;;8.40;60.50;;;;;;5100609;28;20457;-51
2022/01/11 00:40:52;;;;;;;25.37;15.10;;;8.40;60.20;;;;;;5111055;28;20428;-51
2022/01/11 00:43:21;;;;;;;23.30;14.23;;;8.50;60.30;;;;;;5109455;28;20991;-50
2022/01/11 00:45:47;;;;;;;21.33;15.20;;;8.50;60.30;;;;;;5103962;28;20794;-52
2022/01/11 00:48:13;;;;;;;17.37;14.43;;;8.50;60.10;;;;;;5105910;28;20441;-51
2022/01/11 00:50:39;;;;;;;18.30;13.87;;;8.50;59.90;;;;;;5100956;28;20788;-50
2022/01/11 00:53:06;;;;;;;20.90;15.07;;;8.50;59.80;;;;;;5099268;28;20485;-50
2022/01/11 00:55:33;;;;;;;24.43;15.20;;;8.50;59.80;;;;;;5111560;28;20265;-51
2022/01/11 00:57:58;;;;;;;17.43;14.00;;;8.50;59.80;;;;;;5108236;28;20467;-51
2022/01/11 01:00:25;;;;;;;21.80;15.60;;;8.60;59.80;;;;;;5100848;28;20459;-51
2022/01/11 01:02:50;;;;;;;21.10;14.70;;;8.60;59.90;;;;;;5100895;28;20612;-54
2022/01/11 01:05:19;;;;;;;21.00;14.80;;;8.50;59.90;;;;;;5105406;28;20459;-54
2022/01/11 01:07:45;;;;;;;22.50;15.93;;;8.50;60.00;;;;;;5106264;28;20195;-52
2022/01/11 01:12:49;;;;;;;19.67;15.67;;;8.50;59.90;;;;;;5105624;28;20436;-52
2022/01/11 01:15:15;;;;;;;23.50;14.53;;;8.60;60.00;;;;;;5096451;28;20432;-54
2022/01/11 01:17:40;;;;;;;17.97;13.93;;;8.60;60.00;;;;;;5110030;28;20201;-51
2022/01/11 01:20:07;;;;;;;21.87;15.20;;;8.60;59.90;;;;;;5108872;28;20272;-55
2022/01/11 01:22:33;;;;;;;18.70;13.97;;;8.60;59.80;;;;;;5102464;28;20227;-50
2022/01/11 01:24:58;;;;;;;20.83;14.63;;;8.60;59.80;;;;;;5107106;28;20436;-55
2022/01/11 01:27:24;;;;;;;18.80;15.10;;;8.50;59.80;;;;;;5099619;28;20222;-51
2022/01/11 01:29:50;;;;;;;23.70;14.83;;;8.50;59.80;;;;;;5093135;28;20222;-53
2022/01/11 01:32:15;;;;;;;21.20;14.93;;;8.60;59.80;;;;;;5100456;28;20199;-52
2022/01/11 01:34:41;;;;;;;19.83;12.77;;;8.70;59.90;;;;;;5103742;28;20269;-54
2022/01/11 01:37:07;;;;;;;23.47;14.50;;;8.60;59.70;;;;;;5101083;28;20197;-53
2022/01/11 01:39:33;;;;;;;21.17;14.97;;;8.60;59.80;;;;;;5098536;28;20195;-51
2022/01/11 01:42:02;;;;;;;20.53;14.07;;;8.70;59.80;;;;;;5104274;28;20447;-53
2022/01/11 01:44:30;;;;;;;22.90;15.00;;;8.70;59.70;;;;;;5097085;28;20961;-52
2022/01/11 01:46:55;;;;;;;25.97;13.67;;;8.60;59.70;;;;;;5109139;28;20935;-53
2022/01/11 01:49:23;;;;;;;23.13;13.50;;;8.60;59.70;;;;;;5104058;28;20458;-52
2022/01/11 01:51:49;;;;;;;26.70;15.37;;;8.60;59.80;;;;;;5105762;28;20540;-53
2022/01/11 01:54:15;;;;;;;21.13;15.10;;;8.60;59.90;;;;;;5104012;28;20477;-54
2022/01/11 01:56:42;;;;;;;21.53;14.27;;;8.70;59.80;;;;;;5103290;28;20444;-53
2022/01/11 01:59:09;;;;;;;16.50;13.53;;;8.70;59.70;;;;;;5108936;28;20424;-51
2022/01/11 02:01:41;;;;;;;19.70;14.73;;;8.70;59.50;;;;;;5103232;28;20523;-51
2022/01/11 02:04:07;;;;;;;22.17;15.90;;;8.70;59.50;;;;;;5106543;28;20488;-52
2022/01/11 02:06:32;;;;;;;17.03;13.30;;;8.70;59.50;;;;;;5099601;28;20474;-53
2022/01/11 02:08:58;;;;;;;19.30;14.13;;;8.60;59.50;;;;;;5105269;28;20199;-52
2022/01/11 02:11:24;;;;;;;20.90;13.23;;;8.60;59.60;;;;;;5107411;28;20710;-50
2022/01/11 02:13:51;;;;;;;17.97;13.80;;;8.60;59.70;;;;;;5103799;28;20242;-51
2022/01/11 02:16:21;;;;;;;17.60;13.37;;;8.60;59.70;;;;;;5092143;28;20512;-50
2022/01/11 02:18:47;;;;;;;21.50;13.87;;;8.60;59.60;;;;;;5099770;28;20428;-54
2022/01/11 02:21:13;;;;;;;21.63;15.03;;;8.60;59.60;;;;;;5103281;28;20799;-53
2022/01/11 02:23:39;;;;;;;20.87;14.60;;;8.50;59.80;;;;;;5100606;28;20492;-51
2022/01/11 02:26:05;;;;;;;17.80;13.63;;;8.50;59.90;;;;;;5102402;28;20628;-50
2022/01/11 02:28:31;;;;;;;18.67;13.80;;;8.50;59.80;;;;;;5108508;28;20459;-54
2022/01/11 02:30:59;;;;;;;24.20;15.40;;;8.50;59.80;;;;;;5106731;28;20509;-50
2022/01/11 02:33:34;;;;;;;17.17;13.33;;;8.50;59.80;;;;;;5107443;28;20459;-53
2022/01/11 02:36:01;;;;;;;19.13;14.83;;;8.50;59.80;;;;;;5097244;28;20432;-51
2022/01/11 02:38:27;;;;;;;21.90;13.87;;;8.50;59.80;;;;;;5097745;28;20476;-51
2022/01/11 02:40:53;;;;;;;27.17;13.87;;;8.50;59.90;;;;;;5106912;28;20505;-52
2022/01/11 02:43:18;;;;;;;18.70;13.17;;;8.50;60.10;;;;;;5101225;28;20230;-54
2022/01/11 02:45:44;;;;;;;18.30;13.57;;;8.50;61.00;;;;;;5099134;28;20668;-51
2022/01/11 02:48:09;;;;;;;21.70;15.03;;;8.50;60.20;;;;;;5104188;28;20282;-53
2022/01/11 02:50:35;;;;;;;19.30;13.90;;;8.50;60.10;;;;;;5113415;28;20187;-52
2022/01/11 02:53:01;;;;;;;20.10;13.93;;;8.50;60.10;;;;;;5109463;28;20222;-53
2022/01/11 02:55:27;;;;;;;23.37;13.90;;;8.50;60.10;;;;;;5109561;28;20553;-51
2022/01/11 02:57:54;;;;;;;19.40;14.03;;;8.50;60.10;;;;;;5111384;28;20661;-50
2022/01/11 03:00:22;;;;;;;23.00;14.47;;;8.50;60.10;;;;;;5110374;28;20187;-51
2022/01/11 03:02:47;;;;;;;27.73;14.97;;;8.60;60.20;;;;;;5113015;28;20490;-53
2022/01/11 03:05:13;;;;;;;17.93;14.00;;;8.60;60.00;;;;;;5112194;28;20432;-53
2022/01/11 03:07:40;;;;;;;19.83;15.27;;;8.60;59.90;;;;;;5111102;28;20199;-53
2022/01/11 03:10:18;;;;;;;18.97;12.77;;;8.60;60.00;;;;;;5110905;28;20503;-53
2022/01/11 03:12:44;;;;;;;20.43;13.93;;;8.50;59.90;;;;;;5100335;28;20461;-53
2022/01/11 03:15:11;;;;;;;19.93;13.40;;;8.50;60.00;;;;;;5107588;28;20428;-51
2022/01/11 03:17:38;;;;;;;18.30;12.40;;;8.60;60.20;;;;;;5110294;28;20613;-54
2022/01/11 03:20:05;;;;;;;17.00;14.90;;;8.60;60.10;;;;;;5110991;28;20474;-51
2022/01/11 03:22:30;;;;;;;16.60;13.47;;;8.60;60.10;;;;;;5112754;28;20566;-53
2022/01/11 03:24:56;;;;;;;20.53;14.97;;;8.60;60.10;;;;;;5102290;28;20504;-53
2022/01/11 03:27:22;;;;;;;19.40;14.27;;;8.60;60.20;;;;;;5101578;28;20244;-52
2022/01/11 03:29:47;;;;;;;17.33;13.50;;;8.60;60.30;;;;;;5111057;28;20681;-52
2022/01/11 03:32:17;;;;;;;17.13;12.47;;;8.70;60.20;;;;;;5111681;28;20235;-51
2022/01/11 03:34:45;;;;;;;20.77;13.73;;;8.60;60.00;;;;;;5108724;28;20198;-53
2022/01/11 03:37:13;;;;;;;16.80;12.93;;;8.60;60.30;;;;;;5108113;28;20429;-50
2022/01/11 03:39:40;;;;;;;16.20;12.87;;;8.60;60.20;;;;;;5108358;28;20807;-51
2022/01/11 03:42:06;;;;;;;20.97;13.33;;;8.60;60.10;;;;;;5103412;28;20436;-54
2022/01/11 03:44:31;;;;;;;14.93;12.60;;;8.60;60.00;;;;;;5110910;28;20912;-52
2022/01/11 03:46:59;;;;;;;20.17;13.87;;;8.70;59.90;;;;;;5105163;28;20247;-52
2022/01/11 03:49:24;;;;;;;20.83;14.47;;;8.60;59.80;;;;;;5111898;28;20194;-52
2022/01/11 03:51:50;;;;;;;19.10;12.37;;;8.70;59.90;;;;;;5103962;28;20442;-54
2022/01/11 03:54:24;;;;;;;18.70;14.23;;;8.70;59.90;;;;;;5103983;28;20672;-51
2022/01/11 03:56:50;;;;;;;20.03;14.30;;;8.60;59.90;;;;;;5107960;28;20424;-51
2022/01/11 03:59:16;;;;;;;19.60;13.77;;;8.60;59.90;;;;;;5102737;28;20425;-51
2022/01/11 04:01:42;;;;;;;20.37;14.40;;;8.60;59.80;;;;;;5106580;28;20437;-52
2022/01/11 04:04:09;;;;;;;23.63;15.13;;;8.60;59.90;;;;;;5105981;28;20484;-50
2022/01/11 04:06:36;;;;;;;20.87;14.20;;;8.60;60.00;;;;;;5105579;28;20241;-54
2022/01/11 04:09:03;;;;;;;18.43;13.83;;;8.50;60.00;;;;;;5108544;28;20489;-51
2022/01/11 04:11:29;;;;;;;18.47;13.50;;;8.50;60.00;;;;;;5110955;28;20440;-53
2022/01/11 04:13:54;;;;;;;18.43;13.40;;;8.50;59.90;;;;;;5107964;28;20432;-51
2022/01/11 04:16:20;;;;;;;19.50;13.60;;;8.50;59.90;;;;;;5111988;28;20216;-51
2022/01/11 04:18:46;;;;;;;16.63;13.60;;;8.50;60.20;;;;;;5110150;28;20202;-52
2022/01/11 04:21:11;;;;;;;17.90;13.87;;;8.50;60.20;;;;;;5110388;28;20277;-54
2022/01/11 04:23:38;;;;;;;17.83;14.30;;;8.50;60.20;;;;;;5105377;28;20226;-53
2022/01/11 04:26:04;;;;;;;15.70;12.77;;;8.50;60.20;;;;;;5099876;28;20186;-52
2022/01/11 04:28:29;;;;;;;18.93;12.90;;;8.50;60.40;;;;;;5097342;28;20474;-52
2022/01/11 04:31:00;;;;;;;18.50;13.70;;;8.50;60.40;;;;;;5106192;28;20202;-51
2022/01/11 04:33:30;;;;;;;23.17;14.17;;;8.50;60.30;;;;;;5105993;28;20249;-51
2022/01/11 04:35:57;;;;;;;20.33;13.37;;;8.50;60.40;;;;;;5102198;28;20433;-54
2022/01/11 04:38:25;;;;;;;19.10;13.93;;;8.50;60.40;;;;;;5111086;28;20436;-52
2022/01/11 04:40:51;;;;;;;18.60;12.63;;;8.50;60.20;;;;;;5108686;28;20440;-53
2022/01/11 04:43:17;;;;;;;18.60;13.80;;;8.50;60.20;;;;;;5106558;28;20820;-50
2022/01/11 04:45:43;;;;;;;19.60;13.47;;;8.60;60.30;;;;;;5101579;28;20521;-50
2022/01/11 04:48:09;;;;;;;21.23;14.27;;;8.50;60.20;;;;;;5110073;28;20194;-52
2022/01/11 04:50:35;;;;;;;19.37;12.70;;;8.50;60.20;;;;;;5109672;28;20447;-51
2022/01/11 04:53:02;;;;;;;19.07;13.97;;;8.50;60.40;;;;;;5101899;28;20186;-50
2022/01/11 04:55:28;;;;;;;18.13;13.17;;;8.50;60.50;;;;;;5104162;28;20460;-51
2022/01/11 04:57:54;;;;;;;21.37;13.60;;;8.50;60.40;;;;;;5105206;28;20548;-55
2022/01/11 05:00:22;;;;;;;22.93;13.70;;;8.50;60.50;;;;;;5107636;28;20194;-51
2022/01/11 05:02:47;;;;;;;19.57;13.13;;;8.50;60.40;;;;;;5103341;28;20229;-51
2022/01/11 05:05:15;;;;;;;21.20;14.37;;;8.50;60.30;;;;;;5098299;28;20432;-51
2022/01/11 05:07:45;;;;;;;20.43;14.07;;;8.60;60.10;;;;;;5102354;28;20223;-53
2022/01/11 05:10:11;;;;;;;17.07;13.10;;;8.60;60.00;;;;;;5100543;28;20432;-52
2022/01/11 05:12:38;;;;;;;19.53;14.90;;;8.60;59.90;;;;;;5097665;28;20433;-50
2022/01/11 05:15:06;;;;;;;18.00;13.50;;;8.60;59.80;;;;;;5108673;28;20839;-50
2022/01/11 05:17:32;;;;;;;16.80;13.70;;;8.60;59.80;;;;;;5106256;28;20476;-51
2022/01/11 05:19:57;;;;;;;19.87;14.93;;;8.50;59.70;;;;;;5104925;28;20472;-53
2022/01/11 05:22:23;;;;;;;27.33;20.60;;;8.50;59.80;;;;;;5110647;28;20631;-52
2022/01/11 05:24:49;;;;;;;23.43;18.80;;;8.50;59.80;;;;;;5103282;28;20201;-51
2022/01/11 05:27:14;;;;;;;21.33;14.50;;;8.50;60.00;;;;;;5094741;28;20191;-52
2022/01/11 05:29:40;;;;;;;20.90;15.53;;;8.50;59.90;;;;;;5101030;28;20242;-50
2022/01/11 05:32:06;;;;;;;21.20;14.87;;;8.50;60.10;;;;;;5099523;28;20941;-51
2022/01/11 05:34:32;;;;;;;23.93;15.10;;;8.50;60.20;;;;;;5108776;28;20191;-52
2022/01/11 05:36:58;;;;;;;22.57;14.90;;;8.50;60.10;;;;;;5102281;28;20210;-52
2022/01/11 05:39:23;;;;;;;22.73;15.97;;;8.50;60.20;;;;;;5110373;28;20214;-51
2022/01/11 05:41:49;;;;;;;26.70;15.47;;;8.50;60.20;;;;;;5096033;28;20468;-51
2022/01/11 05:44:15;;;;;;;19.17;14.87;;;8.50;60.50;;;;;;5102294;28;20271;-53
2022/01/11 05:46:41;;;;;;;25.90;17.00;;;8.50;60.70;;;;;;5106205;28;20445;-52
2022/01/11 05:49:06;;;;;;;25.80;15.80;;;8.60;60.90;;;;;;5107407;28;20191;-50
2022/01/11 05:51:32;;;;;;;23.87;16.17;;;8.60;60.80;;;;;;5109942;28;20194;-52
2022/01/11 05:53:58;;;;;;;23.40;16.70;;;8.50;60.70;;;;;;5106095;28;20216;-51
2022/01/11 05:56:23;;;;;;;31.03;16.70;;;8.50;60.70;;;;;;5107688;28;20255;-53
2022/01/11 05:58:51;;;;;;;24.23;17.37;;;8.60;60.90;;;;;;5108706;28;20198;-51
2022/01/11 06:01:16;;;;;;;28.90;18.17;;;8.60;60.60;;;;;;5109519;28;20600;-53
2022/01/11 06:03:42;;;;;;;29.33;17.60;;;8.60;60.60;;;;;;5103363;28;20491;-51
2022/01/11 06:06:08;;;;;;;25.23;16.53;;;8.50;60.60;;;;;;5108381;28;20195;-50
2022/01/11 06:08:33;;;;;;;20.90;15.30;;;8.50;60.70;;;;;;5110392;28;20195;-51
2022/01/11 06:10:59;;;;;;;28.43;16.60;;;8.60;60.80;;;;;;5109729;28;20186;-51
2022/01/11 06:13:24;;;;;;;24.80;16.43;;;8.50;60.60;;;;;;5107136;28;20559;-51
2022/01/11 06:15:51;;;;;;;20.83;15.30;;;8.50;60.60;;;;;;5108547;28;20239;-51
2022/01/11 06:18:17;;;;;;;19.40;14.37;;;8.60;60.80;;;;;;5110052;28;20187;-50
2022/01/11 06:20:43;;;;;;;30.20;17.07;;;8.60;60.70;;;;;;5102859;28;20539;-51
2022/01/11 06:23:08;;;;;;;40.53;20.93;;;8.60;60.50;;;;;;5112286;28;20599;-51
2022/01/11 06:25:34;;;;;;;24.00;14.70;;;8.70;61.20;;;;;;5108677;28;20677;-50
2022/01/11 06:28:01;;;;;;;23.80;15.30;;;8.90;62.20;;;;;;5098780;28;20783;-50
2022/01/11 06:30:27;;;;;;;22.57;14.53;;;9.20;62.50;;;;;;5107995;28;20223;-52
2022/01/11 06:32:54;;;;;;;18.30;12.70;;;9.40;61.60;;;;;;5107559;28;20458;-52
2022/01/11 06:35:20;;;;;;;20.70;15.53;;;9.60;59.80;;;;;;5104147;28;20515;-53
2022/01/11 06:37:46;;;;;;;23.60;16.17;;;9.70;59.10;;;;;;5106639;28;20543;-52
2022/01/11 06:40:13;;;;;;;21.90;16.00;;;9.70;58.40;;;;;;5113670;28;20255;-50
2022/01/11 06:42:39;;;;;;;24.17;15.67;;;9.60;58.00;;;;;;5105127;28;20532;-51
2022/01/11 06:45:06;;;;;;;23.57;14.23;;;9.50;57.80;;;;;;5108081;28;20429;-50
2022/01/11 06:47:31;;;;;;;29.93;20.37;;;9.40;58.10;;;;;;5112326;28;20645;-50
2022/01/11 06:49:57;;;;;;;38.27;25.30;;;9.30;58.20;;;;;;5110179;28;20425;-52
2022/01/11 06:52:23;;;;;;;36.43;21.33;;;9.20;58.50;;;;;;5100755;28;20195;-51
2022/01/11 06:54:48;;;;;;;31.90;19.77;;;9.20;58.70;;;;;;5112468;28;20186;-51
2022/01/11 06:57:14;;;;;;;31.37;20.07;;;9.10;58.70;;;;;;5112673;28;20190;-52
2022/01/11 06:59:40;;;;;;;31.83;19.90;;;9.00;58.90;;;;;;5102403;28;20188;-52
2022/01/11 07:02:06;;;;;;;25.50;16.03;;;9.00;59.00;;;;;;5103925;28;20213;-51
2022/01/11 07:04:33;;;;;;;26.97;17.73;;;9.00;59.10;;;;;;5110901;28;20228;-50
2022/01/11 07:06:58;;;;;;;27.23;15.57;;;9.00;59.30;;;;;;5103646;28;20441;-50
2022/01/11 07:09:24;;;;;;;33.53;16.80;;;8.90;58.90;;;;;;5106402;28;20946;-52
2022/01/11 07:11:50;;;;;;;32.43;18.60;;;8.90;59.00;;;;;;5104134;28;20210;-51
2022/01/11 07:14:16;;;;;;;29.20;18.00;;;8.90;59.20;;;;;;5105132;28;20647;-50
2022/01/11 07:16:43;;;;;;;27.47;16.20;;;8.80;59.20;;;;;;5109846;28;20645;-50
2022/01/11 07:19:09;;;;;;;35.37;19.60;;;8.80;59.60;;;;;;5101357;28;20470;-50
2022/01/11 07:21:35;;;;;;;32.10;17.40;;;8.80;59.30;;;;;;5097187;28;20808;-51
2022/01/11 07:24:02;;;;;;;25.40;17.17;;;8.80;59.40;;;;;;5112143;28;20229;-50
2022/01/11 07:26:28;;;;;;;39.03;19.87;;;8.70;59.30;;;;;;5111073;28;20197;-51
2022/01/11 07:28:53;;;;;;;31.23;17.60;;;8.70;59.50;;;;;;5108783;28;20471;-51
2022/01/11 07:31:19;;;;;;;32.00;17.57;;;8.70;59.60;;;;;;5107938;28;20433;-52
2022/01/11 07:33:44;;;;;;;31.17;18.30;;;8.70;59.70;;;;;;5095149;28;20276;-50
2022/01/11 07:36:10;;;;;;;31.67;17.47;;;8.70;59.70;;;;;;5107140;28;20206;-51
2022/01/11 07:38:36;;;;;;;31.90;17.10;;;8.60;59.60;;;;;;5095668;28;20198;-51
2022/01/11 07:41:01;;;;;;;31.17;17.20;;;8.60;59.70;;;;;;5106358;28;20260;-50
2022/01/11 07:43:27;;;;;;;36.30;20.00;;;8.70;59.90;;;;;;5109004;28;20225;-51
2022/01/11 07:45:53;;;;;;;31.33;19.20;;;8.70;59.90;;;;;;5094827;28;20195;-50
2022/01/11 07:48:18;;;;;;;33.17;18.83;;;8.70;59.90;;;;;;5108806;28;20197;-51
2022/01/11 07:50:44;;;;;;;30.53;19.53;;;8.60;60.00;;;;;;5107478;28;20191;-50
2022/01/11 07:53:09;;;;;;;32.77;19.40;;;8.70;60.20;;;;;;5105042;28;20747;-51
2022/01/11 07:55:35;;;;;;;38.67;20.47;;;8.60;60.10;;;;;;5103143;28;20201;-50
2022/01/11 07:58:01;;;;;;;35.33;21.40;;;8.70;60.20;;;;;;5112147;28;20229;-51
2022/01/11 08:00:26;;;;;;;38.33;21.20;;;8.60;61.00;;;;;;5108880;28;20559;-50
2022/01/11 08:02:52;;;;;;;36.20;20.47;;;8.60;60.50;;;;;;5107456;28;20249;-51
2022/01/11 08:05:18;;;;;;;31.90;20.47;;;8.60;60.80;;;;;;5103458;28;20198;-54
2022/01/11 08:07:44;;;;;;;33.53;18.70;;;8.50;61.20;;;;;;5107119;28;20274;-53
2022/01/11 08:10:11;;;;;;;37.40;19.87;;;8.50;61.20;;;;;;5110100;28;20618;-52
2022/01/11 08:12:38;;;;;;;33.37;20.97;;;8.60;61.20;;;;;;5109088;28;20209;-51
2022/01/11 08:15:04;;;;;;;34.00;19.43;;;8.60;61.00;;;;;;5101129;28;20783;-53
2022/01/11 08:17:31;;;;;;;26.47;18.33;;;8.60;60.90;;;;;;5089284;28;20494;-49
2022/01/11 08:19:56;;;;;;;34.17;19.03;;;8.60;61.00;;;;;;5096895;28;20786;-50
2022/01/11 08:22:22;;;;;;;33.17;19.10;;;8.60;61.20;;;;;;5099926;28;20429;-49
2022/01/11 08:24:48;;;;;;;30.57;20.83;;;8.60;61.50;;;;;;5104131;28;20195;-50
2022/01/11 08:27:14;;;;;;;33.10;21.40;;;8.70;61.40;;;;;;5104313;28;20219;-50
2022/01/11 08:29:39;;;;;;;33.93;18.90;;;8.70;61.60;;;;;;5105173;28;20326;-51
2022/01/11 08:32:07;;;;;;;26.13;18.13;;;8.80;60.80;;;;;;5111455;28;20524;-50
2022/01/11 08:34:32;;;;;;;31.23;19.30;;;8.80;60.70;;;;;;5110758;28;20194;-51
2022/01/11 08:36:59;;;;;;;29.73;18.57;;;8.80;60.70;;;;;;5099643;28;21196;-50
2022/01/11 08:39:25;;;;;;;38.23;19.53;;;8.80;61.10;;;;;;5111803;28;20439;-49
2022/01/11 08:41:52;;;;;;;33.07;19.97;;;8.80;61.10;;;;;;5110527;28;21059;-50
2022/01/11 08:44:20;;;;;;;28.40;18.87;;;8.80;61.10;;;;;;5095433;28;20506;-49
2022/01/11 08:46:46;;;;;;;28.57;18.63;;;8.90;61.10;;;;;;5090079;28;20425;-50
2022/01/11 08:49:13;;;;;;;31.77;21.53;;;8.90;61.20;;;;;;5091895;28;20463;-50
2022/01/11 08:51:39;;;;;;;30.57;20.70;;;8.90;60.90;;;;;;5095706;28;20437;-50
2022/01/11 08:54:05;;;;;;;32.87;19.23;;;8.90;61.10;;;;;;5100646;28;20469;-49
2022/01/11 08:56:32;;;;;;;29.90;19.80;;;8.90;60.80;;;;;;5108482;28;20448;-51
2022/01/11 08:58:58;;;;;;;29.23;20.30;;;9.00;60.80;;;;;;5105787;28;20420;-49
2022/01/11 09:01:27;;;;;;;25.80;17.70;;;9.00;60.90;;;;;;5101201;28;20432;-50
2022/01/11 09:03:53;;;;;;;28.00;17.87;;;9.10;60.90;;;;;;5102265;28;20488;-51
2022/01/11 09:06:19;;;;;;;23.77;18.53;;;9.10;60.60;;;;;;5109240;28;20973;-49
2022/01/11 09:08:44;;;;;;;27.70;18.33;;;9.10;60.40;;;;;;5104939;28;20475;-50
2022/01/11 09:11:10;;;;;;;26.80;17.20;;;9.10;60.70;;;;;;5101475;28;20449;-52
2022/01/11 09:13:37;;;;;;;27.07;18.00;;;9.10;60.60;;;;;;5099965;28;20297;-49
2022/01/11 09:16:06;;;;;;;23.63;16.90;;;9.20;60.60;;;;;;5092693;28;20654;-49
2022/01/11 09:18:32;;;;;;;29.67;19.63;;;9.20;60.60;;;;;;5102494;28;20442;-50
2022/01/11 09:21:00;;;;;;;24.77;16.60;;;9.20;60.60;;;;;;5096101;28;20478;-49
2022/01/11 09:23:27;;;;;;;23.80;17.30;;;9.10;60.50;;;;;;5102214;28;20314;-49
2022/01/11 09:25:53;;;;;;;23.03;16.33;;;9.20;60.50;;;;;;5090356;28;20540;-50
2022/01/11 09:28:19;;;;;;;21.27;16.43;;;9.20;60.00;;;;;;5097059;28;20523;-50
2022/01/11 09:30:45;;;;;;;29.23;18.20;;;9.30;60.10;;;;;;5103587;28;20198;-51
2022/01/11 09:33:11;;;;;;;25.67;17.60;;;9.30;60.20;;;;;;5105264;28;20421;-50
2022/01/11 09:35:36;;;;;;;27.20;18.07;;;9.30;60.10;;;;;;5103291;28;20221;-52
2022/01/11 09:38:02;;;;;;;26.30;17.83;;;9.30;60.50;;;;;;5097435;28;20202;-49
2022/01/11 09:40:28;;;;;;;32.73;19.13;;;9.30;60.50;;;;;;5097654;28;20191;-49
2022/01/11 09:42:54;;;;;;;28.77;17.90;;;9.40;60.30;;;;;;5098987;28;20332;-52
2022/01/11 09:45:20;;;;;;;26.80;19.73;;;9.40;60.00;;;;;;5100329;28;20244;-49
2022/01/11 09:47:47;;;;;;;29.30;20.33;;;9.50;59.90;;;;;;5099430;28;20851;-50
2022/01/11 09:50:14;;;;;;;26.70;18.50;;;9.40;60.20;;;;;;5099951;28;20428;-49
2022/01/11 09:52:40;;;;;;;25.20;17.03;;;9.40;60.60;;;;;;5101430;28;20430;-50
2022/01/11 09:55:08;;;;;;;27.50;19.27;;;9.50;60.50;;;;;;5101168;28;20434;-50
2022/01/11 09:57:34;;;;;;;28.10;19.10;;;9.50;60.60;;;;;;5096734;28;20468;-49
2022/01/11 10:00:00;;;;;;;20.93;15.87;;;9.50;60.40;;;;;;5096929;28;20774;-50
2022/01/11 10:02:26;;;;;;;28.83;15.60;;;9.60;60.40;;;;;;5109078;28;20222;-50
2022/01/11 10:04:56;;;;;;;23.87;16.87;;;9.60;60.00;;;;;;5103323;28;20959;-50
2022/01/11 10:07:29;;;;;;;29.13;17.57;;;9.60;60.00;;;;;;5101451;28;20779;-50
2022/01/11 10:09:55;;;;;;;26.60;17.70;;;9.70;59.80;;;;;;5110181;28;20504;-50
2022/01/11 10:12:22;;;;;;;26.90;16.47;;;9.70;59.40;;;;;;5097642;28;20555;-50
2022/01/11 10:14:57;;;;;;;24.83;16.50;;;9.70;59.70;;;;;;5108422;28;20202;-50
2022/01/11 10:17:26;;;;;;;25.13;17.60;;;9.70;59.80;;;;;;5106174;28;20443;-49
2022/01/11 10:20:04;;;;;;;29.00;17.07;;;9.80;59.80;;;;;;5106378;28;20432;-49
2022/01/11 10:22:30;;;;;;;25.33;18.87;;;9.90;59.60;;;;;;5091385;28;20932;-54
2022/01/11 10:24:57;;;;;;;23.50;17.30;;;9.90;59.90;;;;;;5109838;28;20432;-53
2022/01/11 10:27:32;;;;;;;23.80;17.87;;;10.00;59.10;;;;;;5091012;28;20928;-51
2022/01/11 10:30:09;;;;;;;24.10;16.80;;;10.00;58.70;;;;;;5106921;28;21127;-52
2022/01/11 10:32:46;;;;;;;25.50;16.93;;;10.10;58.40;;;;;;5099913;28;20465;-54
2022/01/11 10:35:18;;;;;;;24.20;17.63;;;10.10;58.40;;;;;;5093773;28;20860;-50
2022/01/11 10:37:46;;;;;;;27.13;17.97;;;10.10;58.40;;;;;;5104885;28;20452;-53
2022/01/11 10:40:17;;;;;;;27.03;17.43;;;10.20;58.30;;;;;;5089271;28;20445;-49
2022/01/11 10:42:49;;;;;;;25.03;17.20;;;10.30;58.20;;;;;;5104316;28;20485;-52
2022/01/11 10:45:19;;;;;;;25.93;15.83;;;10.20;57.70;;;;;;5101394;28;20928;-52
2022/01/11 10:48:12;;;;;;;25.87;16.73;;;10.10;57.70;;;;;;5089979;28;20911;-49
2022/01/11 10:50:43;;;;;;;23.90;16.37;;;10.30;57.80;;;;;;5108799;28;20440;-53
2022/01/11 10:53:13;;;;;;;18.90;13.50;;;10.40;57.70;;;;;;5098738;28;20444;-53
2022/01/11 10:55:40;;;;;;;19.17;15.07;;;10.50;57.30;;;;;;5088346;28;20460;-53
2022/01/11 10:58:12;;;;;;;18.70;14.03;;;10.50;56.90;;;;;;5106806;28;20433;-52
2022/01/11 11:00:48;;;;;;;20.00;14.00;;;10.60;56.80;;;;;;5104094;28;20449;-49
2022/01/11 11:03:15;;;;;;;16.47;12.93;;;10.60;56.40;;;;;;5095461;28;20495;-50
2022/01/11 11:05:49;;;;;;;17.90;14.20;;;10.70;56.30;;;;;;5105204;28;20801;-49
2022/01/11 11:08:15;;;;;;;25.17;16.17;;;10.80;56.30;;;;;;5098188;28;20437;-50
2022/01/11 11:10:41;;;;;;;19.03;13.80;;;10.80;56.30;;;;;;5107370;28;20425;-49
2022/01/11 11:13:10;;;;;;;20.47;13.57;;;10.80;56.20;;;;;;5107948;28;20459;-49
2022/01/11 11:15:39;;;;;;;15.73;12.83;;;10.90;55.90;;;;;;5098906;28;20658;-53
2022/01/11 11:18:19;;;;;;;21.97;13.07;;;11.00;55.40;;;;;;5101910;28;20435;-50
2022/01/11 11:20:45;;;;;;;18.70;13.53;;;10.90;54.60;;;;;;5103634;28;20446;-51
2022/01/11 11:23:12;;;;;;;17.23;13.83;;;10.90;54.70;;;;;;5100468;28;20869;-53
2022/01/11 11:25:39;;;;;;;21.57;14.97;;;11.00;54.90;;;;;;5100943;28;20198;-50
2022/01/11 11:28:05;;;;;;;20.27;14.67;;;11.00;55.10;;;;;;5097767;28;20434;-53
2022/01/11 11:30:31;;;;;;;21.00;14.90;;;11.10;55.30;;;;;;5102010;28;20835;-50
2022/01/11 11:32:57;;;;;;;25.70;14.83;;;11.20;55.20;;;;;;5111135;28;20202;-51
2022/01/11 11:35:23;;;;;;;19.97;15.10;;;11.20;55.30;;;;;;5107008;28;20194;-50
2022/01/11 11:38:04;;;;;;;22.13;14.90;;;11.30;55.20;;;;;;5108559;28;20478;-49
2022/01/11 11:40:31;;;;;;;24.63;14.00;;;11.30;55.20;;;;;;5098907;28;20424;-48
2022/01/11 11:42:59;;;;;;;17.77;14.23;;;11.10;54.90;;;;;;5110972;28;20487;-49
2022/01/11 11:45:34;;;;;;;19.17;14.20;;;11.20;55.20;;;;;;5108612;28;20436;-48
2022/01/11 11:48:13;;;;;;;23.73;18.00;;;11.30;55.00;;;;;;5097484;28;20436;-48
2022/01/11 11:51:01;;;;;;;11.73;8.93;;;11.40;54.40;;;;;;5103450;28;21066;-50
2022/01/11 11:53:32;;;;;;;11.10;8.00;;;11.30;53.70;;;;;;5111932;28;20438;-49
2022/01/11 11:56:22;;;;;;;8.50;7.30;;;11.30;52.60;;;;;;5110827;28;20991;-50
2022/01/11 11:58:58;;;;;;;11.90;10.27;;;11.40;51.70;;;;;;5110366;28;20513;-49
2022/01/11 12:01:42;;;;;;;7.33;5.60;;;11.40;51.60;;;;;;5106841;28;20421;-52
2022/01/11 12:04:19;;;;;;;3.90;3.10;;;11.10;50.00;;;;;;5094553;28;20572;-49
2022/01/11 12:06:46;;;;;;;3.40;2.93;;;11.10;48.60;;;;;;5112314;28;20444;-49
2022/01/11 12:09:15;;;;;;;2.97;2.30;;;10.90;46.60;;;;;;5110507;28;20483;-50
2022/01/11 12:11:47;;;;;;;3.77;2.17;;;10.80;47.10;;;;;;5102905;28;20432;-51
2022/01/11 12:14:33;;;;;;;2.20;2.10;;;10.50;45.60;;;;;;5101240;28;20444;-50
2022/01/11 12:17:23;;;;;;;2.60;2.30;;;10.10;46.30;;;;;;5110278;28;20517;-51
2022/01/11 12:19:53;;;;;;;2.40;2.20;;;10.10;46.60;;;;;;5110061;28;20435;-51
2022/01/11 12:22:22;;;;;;;3.93;3.53;;;10.20;46.30;;;;;;5097560;28;20436;-49
2022/01/11 12:24:49;;;;;;;3.67;2.90;;;10.20;46.10;;;;;;5102113;28;20968;-49
2022/01/11 12:27:18;;;;;;;2.30;2.10;;;10.30;46.20;;;;;;5103960;28;20441;-51
2022/01/11 12:30:00;;;;;;;2.47;2.20;;;10.30;46.20;;;;;;5111094;28;20500;-50
2022/01/11 12:32:27;;;;;;;3.23;2.07;;;10.20;46.20;;;;;;5102067;28;20437;-51
2022/01/11 12:34:54;;;;;;;5.83;2.77;;;10.00;46.60;;;;;;5108290;28;20962;-49
2022/01/11 12:37:27;;;;;;;2.67;2.47;;;9.90;47.30;;;;;;5110660;28;20820;-54
2022/01/11 12:40:12;;;;;;;3.13;2.70;;;10.00;46.60;;;;;;5099455;28;20424;-53
2022/01/11 12:42:59;;;;;;;4.00;2.60;;;10.30;46.80;;;;;;5107521;28;20432;-51